createdAt,value
2019-03-23T00:00:49.655Z,81.10
2019-03-23T00:03:19.563Z,88.50
2019-03-23T00:05:49.957Z,111.63
2019-03-23T00:08:19.822Z,142.73
2019-03-23T00:10:49.603Z,154.97
2019-03-23T00:13:19.514Z,123.07
2019-03-23T00:15:49.300Z,115.77
2019-03-23T00:18:19.161Z,137.50
2019-03-23T00:20:49.010Z,120.63
2019-03-23T00:23:18.776Z,114.07
2019-03-23T00:25:48.639Z,153.07
2019-03-23T00:28:18.511Z,135.80
2019-03-23T00:30:48.288Z,97.03
2019-03-23T00:33:18.555Z,65.60
2019-03-23T00:35:48.389Z,57.53
2019-03-23T00:38:18.278Z,64.00
2019-03-23T00:40:48.666Z,67.70
2019-03-23T00:43:18.497Z,65.90
2019-03-23T00:45:48.311Z,60.60
2019-03-23T00:48:18.092Z,65.27
2019-03-23T00:50:47.926Z,66.27
2019-03-23T00:53:17.794Z,69.20
2019-03-23T00:55:47.643Z,67.97
2019-03-23T00:58:17.483Z,66.33
2019-03-23T01:00:47.636Z,68.47
2019-03-23T01:03:17.403Z,63.73
2019-03-23T01:05:47.282Z,57.17
2019-03-23T01:08:17.091Z,66.57
2019-03-23T01:10:46.958Z,69.07
2019-03-23T01:13:16.775Z,68.20
2019-03-23T01:15:48.171Z,78.03
2019-03-23T01:18:18.186Z,78.20
2019-03-23T01:20:49.967Z,76.10
2019-03-23T01:23:19.636Z,68.80
2019-03-23T01:25:49.428Z,71.60
2019-03-23T01:28:19.252Z,81.37
2019-03-23T01:30:49.118Z,76.63
2019-03-23T01:33:18.954Z,76.00
2019-03-23T01:35:48.830Z,69.90
2019-03-23T01:38:18.717Z,66.87
2019-03-23T01:40:48.511Z,73.67
2019-03-23T01:43:18.410Z,71.90
2019-03-23T01:45:48.209Z,77.30
2019-03-23T01:48:18.047Z,74.50
2019-03-23T01:50:47.845Z,67.37
2019-03-23T01:53:17.619Z,64.57
2019-03-23T01:55:47.382Z,75.97
2019-03-23T01:58:17.225Z,95.07
2019-03-23T02:00:47.257Z,137.83
2019-03-23T02:03:17.564Z,131.90
2019-03-23T02:05:47.423Z,175.10
2019-03-23T02:08:17.216Z,199.20
2019-03-23T02:10:47.113Z,205.33
2019-03-23T02:13:17.020Z,151.00
2019-03-23T02:15:49.173Z,154.10
2019-03-23T02:18:19.037Z,175.33
2019-03-23T02:20:49.038Z,98.87
2019-03-23T02:23:18.844Z,85.60
2019-03-23T02:25:49.384Z,188.17
2019-03-23T02:28:19.605Z,227.33
2019-03-23T02:30:49.361Z,357.20
2019-03-23T02:33:19.189Z,145.63
2019-03-23T02:35:49.064Z,124.37
2019-03-23T02:38:19.815Z,81.47
2019-03-23T02:40:49.651Z,67.67
2019-03-23T02:43:19.406Z,79.47
2019-03-23T02:45:49.290Z,62.43
2019-03-23T02:48:19.070Z,61.73
2019-03-23T02:50:48.882Z,53.07
2019-03-23T02:53:18.651Z,50.13
2019-03-23T02:55:48.422Z,58.87
2019-03-23T02:58:18.243Z,52.13
2019-03-23T03:00:48.087Z,53.83
2019-03-23T03:03:17.952Z,56.53
2019-03-23T03:05:47.729Z,54.97
2019-03-23T03:08:17.513Z,57.90
2019-03-23T03:10:47.354Z,65.67
2019-03-23T03:13:17.644Z,66.67
2019-03-23T03:15:47.510Z,60.17
2019-03-23T03:18:17.365Z,78.07
2019-03-23T03:20:47.249Z,101.47
2019-03-23T03:23:17.009Z,93.30
2019-03-23T03:25:46.746Z,92.33
2019-03-23T03:28:16.628Z,80.97
2019-03-23T03:30:47.055Z,71.20
2019-03-23T03:33:16.913Z,72.37
2019-03-23T03:35:46.714Z,75.53
2019-03-23T03:38:16.550Z,71.73
2019-03-23T03:40:46.395Z,74.73
2019-03-23T03:43:16.182Z,78.10
2019-03-23T03:45:46.451Z,163.37
2019-03-23T03:48:16.232Z,300.40
2019-03-23T03:50:46.118Z,259.47
2019-03-23T03:53:15.955Z,304.03
2019-03-23T03:55:45.742Z,342.10
2019-03-23T03:58:15.622Z,184.27
2019-03-23T04:00:45.479Z,138.70
2019-03-23T04:03:15.331Z,92.33
2019-03-23T04:05:45.131Z,81.73
2019-03-23T04:08:15.000Z,66.17
2019-03-23T04:10:44.791Z,87.67
2019-03-23T04:13:14.587Z,151.00
2019-03-23T04:15:44.423Z,80.33
2019-03-23T04:18:14.221Z,88.53
2019-03-23T04:20:44.037Z,75.57
2019-03-23T04:23:13.875Z,78.93
2019-03-23T04:25:43.636Z,81.93
2019-03-23T04:28:13.553Z,82.43
2019-03-23T04:30:43.350Z,91.80
2019-03-23T04:33:13.218Z,93.43
2019-03-23T04:35:43.070Z,106.97
2019-03-23T04:38:22.295Z,86.57
2019-03-23T04:40:44.458Z,110.17
2019-03-23T04:43:14.352Z,85.03
2019-03-23T04:45:44.235Z,80.87
2019-03-23T04:48:14.109Z,91.17
2019-03-23T04:50:43.972Z,98.47
2019-03-23T04:53:13.786Z,104.47
2019-03-23T04:55:43.587Z,97.80
2019-03-23T04:58:13.526Z,99.40
2019-03-23T05:00:43.954Z,86.93
2019-03-23T05:03:13.747Z,95.43
2019-03-23T05:05:43.518Z,92.53
2019-03-23T05:08:13.310Z,252.70
2019-03-23T05:10:43.162Z,309.40
2019-03-23T05:13:13.330Z,184.67
2019-03-23T05:15:43.448Z,130.60
2019-03-23T05:18:13.661Z,97.77
2019-03-23T05:20:43.516Z,93.67
2019-03-23T05:23:13.370Z,104.37
2019-03-23T05:25:43.269Z,101.73
2019-03-23T05:28:13.164Z,87.60
2019-03-23T05:30:43.001Z,85.80
2019-03-23T05:33:13.221Z,80.07
2019-03-23T05:35:43.355Z,82.57
2019-03-23T05:38:13.120Z,82.80
2019-03-23T05:40:42.900Z,113.60
2019-03-23T05:43:12.702Z,257.43
2019-03-23T05:45:42.552Z,197.30
2019-03-23T05:48:12.407Z,109.07
2019-03-23T05:50:42.258Z,141.87
2019-03-23T05:53:12.183Z,122.13
2019-03-23T05:55:42.565Z,151.83
2019-03-23T05:58:12.418Z,116.50
2019-03-23T06:00:42.302Z,94.40
2019-03-23T06:03:12.164Z,52.60
2019-03-23T06:05:41.946Z,67.03
2019-03-23T06:08:11.866Z,43.70
2019-03-23T06:10:41.657Z,45.60
2019-03-23T06:13:11.414Z,44.20
2019-03-23T06:15:41.294Z,34.90
2019-03-23T06:18:11.503Z,32.47
2019-03-23T06:20:41.378Z,33.60
2019-03-23T06:23:11.167Z,28.63
2019-03-23T06:25:40.998Z,30.10
2019-03-23T06:28:10.912Z,256.20
2019-03-23T06:30:42.139Z,280.10
2019-03-23T06:33:11.935Z,292.57
2019-03-23T06:35:41.758Z,158.10
2019-03-23T06:38:11.605Z,73.07
2019-03-23T06:40:41.475Z,47.00
2019-03-23T06:43:11.298Z,27.43
2019-03-23T06:45:41.087Z,27.87
2019-03-23T06:48:10.890Z,24.67
2019-03-23T06:50:40.742Z,26.43
2019-03-23T06:53:10.634Z,27.03
2019-03-23T06:55:40.710Z,27.97
2019-03-23T06:58:10.557Z,26.57
2019-03-23T07:00:40.415Z,24.63
2019-03-23T07:03:10.301Z,23.80
2019-03-23T07:05:40.114Z,24.50
2019-03-23T07:08:09.954Z,22.00
2019-03-23T07:10:39.835Z,22.90
2019-03-23T07:13:09.633Z,21.63
2019-03-23T07:15:40.067Z,23.20
2019-03-23T07:18:09.882Z,19.53
2019-03-23T07:20:39.727Z,18.67
2019-03-23T07:23:09.501Z,18.23
2019-03-23T07:25:39.379Z,19.73
2019-03-23T07:28:09.177Z,17.53
2019-03-23T07:30:39.051Z,18.83
2019-03-23T07:33:08.958Z,23.30
2019-03-23T07:35:38.798Z,20.13
2019-03-23T07:38:08.655Z,20.73
2019-03-23T07:40:39.209Z,24.33
2019-03-23T07:43:09.063Z,19.23
2019-03-23T07:45:38.911Z,22.07
2019-03-23T07:48:08.702Z,19.87
2019-03-23T07:50:38.543Z,18.33
2019-03-23T07:53:08.877Z,17.50
2019-03-23T07:55:38.650Z,22.30
2019-03-23T07:58:08.504Z,16.87
2019-03-23T08:00:40.789Z,19.43
2019-03-23T08:03:09.820Z,12.70
2019-03-23T08:05:39.676Z,18.30
2019-03-23T08:08:09.523Z,16.67
2019-03-23T08:10:39.318Z,15.40
2019-03-23T08:13:09.123Z,17.77
2019-03-23T08:15:38.958Z,21.10
2019-03-23T08:18:08.869Z,18.07
2019-03-23T08:20:38.650Z,14.43
2019-03-23T08:23:08.452Z,15.13
2019-03-23T08:25:38.997Z,14.63
2019-03-23T08:28:08.814Z,14.10
2019-03-23T08:30:38.696Z,13.70
2019-03-23T08:33:08.474Z,13.03
2019-03-23T08:35:38.317Z,16.17
2019-03-23T08:38:08.506Z,16.07
2019-03-23T08:40:38.298Z,15.67
2019-03-23T08:43:08.160Z,15.47
2019-03-23T08:45:38.021Z,15.93
2019-03-23T08:48:07.810Z,13.97
2019-03-23T08:50:37.688Z,17.23
2019-03-23T08:53:07.469Z,17.60
2019-03-23T08:55:37.310Z,18.50
2019-03-23T08:58:07.207Z,14.47
2019-03-23T09:00:36.981Z,13.37
2019-03-23T09:03:07.259Z,15.73
2019-03-23T09:05:37.133Z,15.83
2019-03-23T09:08:06.935Z,15.90
2019-03-23T09:10:36.817Z,12.40
2019-03-23T09:13:06.693Z,11.50
2019-03-23T09:15:36.950Z,8.63
2019-03-23T09:18:07.691Z,8.37
2019-03-23T09:20:37.596Z,6.93
2019-03-23T09:23:07.469Z,11.83
2019-03-23T09:25:37.416Z,11.87
2019-03-23T09:28:07.278Z,14.63
2019-03-23T09:30:37.174Z,10.27
2019-03-23T09:33:07.503Z,8.47
2019-03-23T09:35:39.440Z,8.90
2019-03-23T09:38:08.923Z,11.37
2019-03-23T09:40:38.735Z,10.03
2019-03-23T09:43:08.532Z,8.27
2019-03-23T09:45:38.410Z,9.67
2019-03-23T09:48:08.262Z,8.77
2019-03-23T09:50:38.339Z,8.97
2019-03-23T09:53:08.115Z,9.83
2019-03-23T09:55:37.947Z,12.27
2019-03-23T09:58:07.737Z,9.40
2019-03-23T10:00:37.441Z,12.10
2019-03-23T10:03:07.227Z,10.10
2019-03-23T10:05:37.128Z,11.27
2019-03-23T10:08:06.980Z,13.77
2019-03-23T10:10:36.859Z,11.17
2019-03-23T10:13:06.650Z,9.90
2019-03-23T10:15:36.521Z,11.27
2019-03-23T10:18:06.298Z,9.83
2019-03-23T10:20:36.148Z,10.50
2019-03-23T10:23:05.923Z,11.43
2019-03-23T10:25:35.826Z,10.80
2019-03-23T10:28:06.470Z,8.47
2019-03-23T10:30:36.318Z,10.27
2019-03-23T10:33:06.107Z,12.77
2019-03-23T10:35:36.435Z,8.80
2019-03-23T10:38:06.354Z,8.70
2019-03-23T10:40:36.199Z,8.77
2019-03-23T10:43:06.013Z,7.93
2019-03-23T10:45:43.815Z,11.13
2019-03-23T10:48:07.414Z,7.80
2019-03-23T10:50:37.284Z,12.80
2019-03-23T10:53:07.073Z,7.50
2019-03-23T10:55:36.933Z,9.67
2019-03-23T10:58:06.787Z,7.70
2019-03-23T11:00:36.570Z,10.17
2019-03-23T11:03:06.544Z,8.37
2019-03-23T11:05:37.082Z,8.90
2019-03-23T11:08:06.946Z,10.73
2019-03-23T11:10:41.756Z,11.23
2019-03-23T11:13:08.236Z,8.33
2019-03-23T11:15:38.234Z,7.27
2019-03-23T11:18:08.537Z,6.40
2019-03-23T11:20:38.226Z,8.00
2019-03-23T11:23:08.082Z,8.17
2019-03-23T11:25:37.899Z,8.90
2019-03-23T11:28:07.664Z,7.53
2019-03-23T11:30:37.505Z,8.93
2019-03-23T11:33:07.306Z,7.47
2019-03-23T11:35:37.367Z,7.83
2019-03-23T11:38:07.234Z,7.57
2019-03-23T11:40:38.064Z,9.87
2019-03-23T11:43:08.513Z,10.70
2019-03-23T11:45:38.344Z,8.23
2019-03-23T11:48:08.119Z,8.43
2019-03-23T11:50:38.082Z,8.77
2019-03-23T11:53:07.970Z,9.20
2019-03-23T11:55:37.753Z,7.57
2019-03-23T11:58:07.888Z,8.20
2019-03-23T12:00:37.803Z,7.70
2019-03-23T12:03:07.587Z,7.07
2019-03-23T12:05:37.418Z,9.60
2019-03-23T12:08:07.209Z,8.63
2019-03-23T12:10:37.181Z,8.70
2019-03-23T12:13:07.174Z,7.70
2019-03-23T12:15:37.066Z,10.60
2019-03-23T12:18:06.968Z,8.17
2019-03-23T12:20:36.822Z,9.63
2019-03-23T12:23:06.681Z,13.63
2019-03-23T12:25:36.547Z,8.60
2019-03-23T12:28:06.763Z,8.77
2019-03-23T12:30:36.541Z,7.80
2019-03-23T12:33:06.389Z,9.80
2019-03-23T12:35:36.149Z,12.40
2019-03-23T12:38:06.761Z,8.70
2019-03-23T12:40:36.653Z,9.10
2019-03-23T12:43:09.427Z,7.80
2019-03-23T12:45:39.277Z,8.73
2019-03-23T12:48:09.131Z,8.60
2019-03-23T12:50:38.993Z,9.40
2019-03-23T12:53:08.759Z,8.13
2019-03-23T12:55:38.648Z,8.30
2019-03-23T12:58:08.918Z,7.37
2019-03-23T13:00:38.677Z,7.03
2019-03-23T13:03:08.574Z,8.60
2019-03-23T13:05:38.349Z,7.27
2019-03-23T13:08:08.248Z,6.27
2019-03-23T13:10:38.209Z,8.03
2019-03-23T13:13:08.142Z,7.23
2019-03-23T13:15:37.923Z,8.63
2019-03-23T13:18:07.803Z,8.73
2019-03-23T13:20:37.623Z,12.60
2019-03-23T13:23:07.490Z,8.07
2019-03-23T13:25:37.410Z,8.60
2019-03-23T13:28:07.181Z,12.40
2019-03-23T13:30:37.257Z,9.90
2019-03-23T13:33:07.118Z,8.10
2019-03-23T13:35:36.967Z,8.40
2019-03-23T13:38:06.758Z,10.93
2019-03-23T13:40:36.622Z,10.93
2019-03-23T13:43:07.553Z,8.37
2019-03-23T13:45:42.575Z,11.03
2019-03-23T13:48:08.866Z,9.33
2019-03-23T13:50:38.738Z,11.20
2019-03-23T13:53:08.971Z,10.20
2019-03-23T13:55:38.823Z,12.63
2019-03-23T13:58:12.726Z,12.83
2019-03-23T14:00:43.227Z,10.17
2019-03-23T14:03:13.066Z,8.90
2019-03-23T14:05:43.167Z,14.07
2019-03-23T14:08:13.038Z,44.77
2019-03-23T14:10:42.946Z,21.87
2019-03-23T14:13:13.240Z,14.93
2019-03-23T14:15:43.089Z,16.70
2019-03-23T14:18:12.835Z,48.93
2019-03-23T14:20:42.702Z,23.43
2019-03-23T14:23:12.526Z,29.93
2019-03-23T14:25:42.383Z,34.67
2019-03-23T14:28:12.257Z,24.20
2019-03-23T14:30:42.113Z,26.40
2019-03-23T14:33:11.967Z,22.97
2019-03-23T14:35:41.837Z,17.77
2019-03-23T14:38:11.690Z,38.97
2019-03-23T14:40:41.559Z,30.33
2019-03-23T14:43:11.471Z,21.07
2019-03-23T14:45:42.415Z,58.37
2019-03-23T14:48:12.245Z,39.77
2019-03-23T14:50:42.783Z,18.73
2019-03-23T14:53:12.730Z,33.97
2019-03-23T14:55:42.575Z,50.97
2019-03-23T14:58:12.355Z,50.93
2019-03-23T15:00:42.155Z,15.70
2019-03-23T15:03:11.934Z,32.50
2019-03-23T15:05:41.846Z,16.60
2019-03-23T15:08:11.652Z,14.00
2019-03-23T15:10:41.517Z,25.50
2019-03-23T15:13:11.366Z,19.47
2019-03-23T15:15:41.137Z,15.67
2019-03-23T15:18:10.881Z,21.17
2019-03-23T15:20:40.601Z,20.17
2019-03-23T15:23:10.368Z,15.60
2019-03-23T15:25:40.150Z,22.47
2019-03-23T15:28:10.345Z,20.73
2019-03-23T15:30:40.126Z,20.83
2019-03-23T15:33:10.010Z,75.73
2019-03-23T15:35:39.858Z,76.60
2019-03-23T15:38:09.618Z,62.50
2019-03-23T15:40:39.823Z,22.20
2019-03-23T15:43:09.613Z,41.70
2019-03-23T15:45:39.491Z,21.10
2019-03-23T15:48:09.281Z,15.53
2019-03-23T15:50:39.157Z,26.53
2019-03-23T15:53:08.964Z,21.30
2019-03-23T15:55:38.780Z,23.50
2019-03-23T15:58:08.569Z,28.10
2019-03-23T16:00:38.425Z,24.67
2019-03-23T16:03:08.327Z,92.03
2019-03-23T16:05:38.173Z,25.67
2019-03-23T16:08:08.039Z,56.20
2019-03-23T16:10:37.940Z,33.10
2019-03-23T16:13:07.754Z,24.50
2019-03-23T16:15:37.612Z,25.80
2019-03-23T16:18:07.410Z,20.17
2019-03-23T16:20:37.198Z,23.07
2019-03-23T16:23:07.802Z,15.97
2019-03-23T16:25:37.843Z,28.27
2019-03-23T16:28:07.703Z,18.37
2019-03-23T16:30:37.481Z,22.73
2019-03-23T16:33:07.278Z,54.30
2019-03-23T16:35:37.113Z,215.97
2019-03-23T16:38:06.951Z,202.53
2019-03-23T16:40:37.167Z,88.57
2019-03-23T16:43:07.327Z,82.37
2019-03-23T16:45:37.214Z,133.43
2019-03-23T16:48:07.007Z,92.13
2019-03-23T16:50:36.897Z,126.17
2019-03-23T16:53:06.729Z,186.63
2019-03-23T16:55:36.682Z,249.17
2019-03-23T16:58:15.772Z,271.87
2019-03-23T17:00:38.706Z,157.93
2019-03-23T17:03:08.589Z,166.57
2019-03-23T17:05:38.473Z,75.03
2019-03-23T17:08:09.479Z,76.07
2019-03-23T17:10:39.188Z,114.73
2019-03-23T17:13:09.113Z,84.80
2019-03-23T17:15:40.583Z,148.33
2019-03-23T17:18:10.459Z,156.40
2019-03-23T17:20:40.333Z,119.93
2019-03-23T17:23:10.555Z,62.73
2019-03-23T17:25:40.435Z,95.70
2019-03-23T17:28:10.336Z,180.53
2019-03-23T17:30:40.165Z,194.93
2019-03-23T17:33:09.963Z,155.27
2019-03-23T17:35:39.739Z,235.73
2019-03-23T17:38:09.530Z,344.43
2019-03-23T17:40:39.322Z,457.93
2019-03-23T17:43:09.191Z,153.13
2019-03-23T17:45:39.053Z,177.40
2019-03-23T17:48:09.738Z,195.67
2019-03-23T17:50:39.562Z,333.07
2019-03-23T17:53:09.361Z,648.60
2019-03-23T17:55:39.273Z,393.80
2019-03-23T17:58:09.150Z,199.80
2019-03-23T18:00:39.037Z,110.73
2019-03-23T18:03:08.882Z,100.10
2019-03-23T18:05:38.727Z,100.50
2019-03-23T18:08:08.606Z,77.40
2019-03-23T18:10:38.487Z,100.87
2019-03-23T18:13:16.199Z,121.17
2019-03-23T18:15:39.997Z,104.70
2019-03-23T18:18:09.887Z,105.67
2019-03-23T18:20:39.725Z,307.23
2019-03-23T18:23:09.586Z,423.57
2019-03-23T18:25:42.226Z,140.00
2019-03-23T18:28:12.036Z,158.33
2019-03-23T18:30:45.650Z,142.90
2019-03-23T18:33:15.496Z,107.77
2019-03-23T18:35:45.327Z,86.67
2019-03-23T18:38:15.187Z,89.40
2019-03-23T18:40:45.009Z,86.80
2019-03-23T18:43:14.845Z,91.03
2019-03-23T18:45:44.664Z,92.60
2019-03-23T18:48:14.452Z,99.87
2019-03-23T18:50:44.247Z,109.57
2019-03-23T18:53:14.073Z,140.67
2019-03-23T18:55:43.951Z,149.07
2019-03-23T18:58:13.853Z,123.03
2019-03-23T19:00:44.645Z,114.27
2019-03-23T19:03:14.491Z,113.43
2019-03-23T19:05:44.302Z,109.33
2019-03-23T19:08:14.166Z,141.40
2019-03-23T19:10:44.012Z,167.20
2019-03-23T19:13:13.845Z,158.80
2019-03-23T19:15:43.736Z,194.60
2019-03-23T19:18:13.941Z,159.53
2019-03-23T19:20:43.890Z,131.10
2019-03-23T19:23:13.742Z,117.00
2019-03-23T19:25:43.661Z,125.27
2019-03-23T19:28:13.530Z,152.90
2019-03-23T19:30:43.427Z,434.43
2019-03-23T19:33:13.207Z,310.47
2019-03-23T19:35:43.639Z,133.97
2019-03-23T19:38:13.657Z,98.20
2019-03-23T19:40:43.569Z,99.90
2019-03-23T19:43:13.627Z,95.93
2019-03-23T19:45:43.539Z,138.10
2019-03-23T19:48:13.428Z,86.93
2019-03-23T19:50:43.522Z,65.77
2019-03-23T19:53:13.313Z,116.20
2019-03-23T19:55:43.161Z,112.57
2019-03-23T19:58:14.683Z,77.67
2019-03-23T20:00:48.214Z,70.93
2019-03-23T20:03:19.277Z,75.90
2019-03-23T20:05:49.394Z,58.30
2019-03-23T20:08:19.223Z,56.80
2019-03-23T20:10:49.066Z,53.60
2019-03-23T20:13:18.935Z,54.30
2019-03-23T20:15:48.777Z,53.47
2019-03-23T20:18:18.967Z,60.37
2019-03-23T20:20:49.459Z,59.30
2019-03-23T20:23:19.239Z,59.47
2019-03-23T20:25:49.027Z,64.97
2019-03-23T20:28:18.844Z,69.37
2019-03-23T20:30:48.708Z,66.00
2019-03-23T20:33:19.557Z,62.87
2019-03-23T20:35:49.666Z,119.57
2019-03-23T20:38:19.453Z,138.53
2019-03-23T20:40:49.306Z,139.20
2019-03-23T20:43:19.412Z,123.40
2019-03-23T20:45:49.255Z,113.77
2019-03-23T20:48:19.799Z,137.17
2019-03-23T20:50:49.697Z,250.60
2019-03-23T20:53:20.511Z,197.50
2019-03-23T20:55:50.392Z,187.43
2019-03-23T20:58:20.243Z,168.37
2019-03-23T21:00:50.159Z,171.77
2019-03-23T21:03:20.085Z,186.97
2019-03-23T21:05:50.557Z,140.13
2019-03-23T21:08:20.346Z,164.53
2019-03-23T21:10:50.151Z,193.70
2019-03-23T21:13:20.295Z,170.57
2019-03-23T21:15:50.155Z,175.47
2019-03-23T21:18:20.052Z,181.33
2019-03-23T21:20:49.893Z,165.47
2019-03-23T21:23:19.691Z,137.97
2019-03-23T21:25:49.520Z,130.03
2019-03-23T21:28:19.376Z,152.13
2019-03-23T21:30:49.178Z,126.20
2019-03-23T21:33:18.970Z,136.73
2019-03-23T21:35:49.066Z,115.83
2019-03-23T21:38:18.883Z,87.83
2019-03-23T21:40:48.659Z,76.70
2019-03-23T21:43:18.517Z,72.00
2019-03-23T21:45:48.361Z,70.50
2019-03-23T21:48:18.139Z,86.40
2019-03-23T21:50:47.987Z,94.00
2019-03-23T21:53:17.777Z,94.77
2019-03-23T21:55:47.758Z,97.50
2019-03-23T21:58:17.521Z,89.77
2019-03-23T22:00:47.378Z,98.77
2019-03-23T22:03:19.030Z,75.63
2019-03-23T22:05:48.893Z,71.17
2019-03-23T22:08:18.734Z,68.13
2019-03-23T22:10:48.566Z,76.07
2019-03-23T22:13:18.424Z,217.23
2019-03-23T22:15:48.232Z,304.93
2019-03-23T22:18:18.047Z,215.10
2019-03-23T22:20:47.856Z,186.13
2019-03-23T22:23:17.642Z,123.57
2019-03-23T22:25:47.523Z,106.80
2019-03-23T22:28:17.410Z,101.43
2019-03-23T22:30:47.765Z,98.03
2019-03-23T22:33:17.592Z,113.63
2019-03-23T22:35:47.386Z,85.57
2019-03-23T22:38:17.174Z,81.90
2019-03-23T22:40:47.072Z,74.37
2019-03-23T22:43:16.927Z,77.20
2019-03-23T22:45:46.849Z,73.83
2019-03-23T22:48:16.800Z,75.57
2019-03-23T22:50:46.654Z,72.60
2019-03-23T22:53:16.426Z,73.20
2019-03-23T22:55:46.331Z,71.53
2019-03-23T22:58:16.223Z,71.27
2019-03-23T23:00:47.934Z,87.60
2019-03-23T23:03:18.478Z,93.97
2019-03-23T23:05:48.351Z,84.80
2019-03-23T23:08:18.227Z,58.70
2019-03-23T23:10:48.125Z,103.37
2019-03-23T23:13:18.133Z,86.53
2019-03-23T23:15:47.986Z,104.67
2019-03-23T23:18:18.254Z,104.30
2019-03-23T23:20:48.069Z,98.37
2019-03-23T23:23:17.841Z,86.93
2019-03-23T23:25:47.662Z,61.67
2019-03-23T23:28:17.431Z,52.67
2019-03-23T23:30:47.214Z,75.63
2019-03-23T23:33:17.084Z,57.67
2019-03-23T23:35:46.932Z,61.00
2019-03-23T23:38:18.706Z,63.57
2019-03-23T23:40:48.504Z,68.37
2019-03-23T23:43:18.364Z,62.40
2019-03-23T23:45:48.162Z,132.30
2019-03-23T23:48:17.988Z,152.13
2019-03-23T23:50:47.767Z,114.17
2019-03-23T23:53:17.603Z,89.80
2019-03-23T23:55:47.490Z,90.90
2019-03-23T23:58:17.351Z,80.90
